Wetterstation Vordersexau
Wetterdaten: Woche 15.04.13 - 21.04.13 (KW16)
Datum Zeit Temp. A. Feuchte A. Luftdruck Regen Wind Richtung Taupunkt Windchill Windben
15.04.2013 00:00 13,2 C 67 % 1019,0 hPa 0,0 l/m 0,0 km/h S-SO 7,2 C 13,2 C 0,0 km/h
15.04.2013 01:00 12,4 C 70 % 1018,9 hPa 0,0 l/m 0,0 km/h SO 7,1 C 12,4 C 0,0 km/h
15.04.2013 02:00 11,3 C 74 % 1018,7 hPa 0,0 l/m 2,6 km/h SO 6,8 C 11,3 C 1,4 km/h
15.04.2013 03:00 10,8 C 76 % 1018,8 hPa 0,0 l/m 0,0 km/h SO 6,7 C 10,8 C 0,0 km/h
15.04.2013 04:00 9,9 C 79 % 1019,2 hPa 0,0 l/m 0,0 km/h SO 6,4 C 9,9 C 0,0 km/h
15.04.2013 05:00 9,3 C 79 % 1019,3 hPa 0,0 l/m 0,0 km/h SO 5,8 C 9,3 C 0,0 km/h
15.04.2013 06:00 8,9 C 81 % 1019,4 hPa 0,0 l/m 0,0 km/h O-SO 5,8 C 8,9 C 0,0 km/h
15.04.2013 07:00 8,7 C 82 % 1020,1 hPa 0,0 l/m 0,0 km/h S 5,8 C 8,7 C 0,0 km/h
15.04.2013 08:00 13,3 C 76 % 1019,9 hPa 0,0 l/m 0,0 km/h O-SO 9,2 C 13,3 C 0,0 km/h
15.04.2013 09:00 20,5 C 58 % 1019,4 hPa 0,0 l/m 0,0 km/h S 11,9 C 20,5 C 0,0 km/h
15.04.2013 10:00 25,3 C 43 % 1019,3 hPa 0,0 l/m 0,0 km/h N 11,8 C 25,3 C 0,0 km/h
15.04.2013 11:00 26,4 C 39 % 1018,8 hPa 0,0 l/m 2,6 km/h NW 11,3 C 26,4 C 1,4 km/h
15.04.2013 12:00 25,8 C 37 % 1018,6 hPa 0,0 l/m 29,2 km/h N 10,0 C 22,9 C 16,2 km/h
15.04.2013 13:00 25,2 C 37 % 1018,4 hPa 0,0 l/m 25,9 km/h N-NW 9,5 C 22,4 C 14,4 km/h
15.04.2013 14:00 25,6 C 36 % 1017,9 hPa 0,0 l/m 31,8 km/h NW 9,4 C 22,5 C 17,6 km/h
15.04.2013 15:00 27,6 C 30 % 1017,4 hPa 0,0 l/m 17,5 km/h NW 8,4 C 26,2 C 9,7 km/h
15.04.2013 16:00 28,0 C 29 % 1016,7 hPa 0,0 l/m 0,0 km/h W 8,3 C 28,0 C 0,0 km/h
15.04.2013 17:00 25,7 C 31 % 1016,5 hPa 0,0 l/m 9,1 km/h W-NW 7,3 C 25,1 C 5,0 km/h
15.04.2013 18:00 26,2 C 30 % 1016,5 hPa 0,0 l/m 0,0 km/h W-NW 7,2 C 26,2 C 0,0 km/h
15.04.2013 19:00 23,6 C 35 % 1016,2 hPa 0,0 l/m 0,0 km/h SO 7,2 C 23,6 C 0,0 km/h
15.04.2013 20:00 18,5 C 53 % 1016,6 hPa 0,0 l/m 0,0 km/h S 8,7 C 18,5 C 0,0 km/h
15.04.2013 21:00 17,4 C 58 % 1016,7 hPa 0,0 l/m 24,6 km/h S 9,1 C 11,9 C 13,7 km/h
15.04.2013 22:00 15,6 C 62 % 1017,0 hPa 0,0 l/m 0,0 km/h SO 8,3 C 15,6 C 0,0 km/h
15.04.2013 23:00 14,1 C 66 % 1017,0 hPa 0,0 l/m 0,0 km/h S 7,8 C 14,1 C 0,0 km/h
16.04.2013 00:00 13,6 C 70 % 1017,1 hPa 0,0 l/m 0,0 km/h S 8,2 C 13,6 C 0,0 km/h
16.04.2013 01:00 13,6 C 70 % 1016,9 hPa 0,0 l/m 0,0 km/h SO 8,2 C 13,6 C 0,0 km/h
16.04.2013 02:00 12,6 C 73 % 1017,3 hPa 0,0 l/m 0,0 km/h S 7,9 C 12,6 C 0,0 km/h
16.04.2013 03:00 13,2 C 74 % 1017,2 hPa 0,0 l/m 1,9 km/h S-SO 8,7 C 13,2 C 1,1 km/h
16.04.2013 04:00 12,4 C 79 % 1017,8 hPa 0,0 l/m 0,0 km/h S 8,9 C 12,4 C 0,0 km/h
16.04.2013 05:00 11,5 C 82 % 1017,1 hPa 0,0 l/m 0,0 km/h S-SW 8,5 C 11,5 C 0,0 km/h
16.04.2013 06:00 11,7 C 83 % 1017,6 hPa 0,0 l/m 7,1 km/h S-SO 8,9 C 11,2 C 4,0 km/h
16.04.2013 07:00 11,8 C 83 % 1018,1 hPa 0,0 l/m 0,0 km/h S 9,0 C 11,8 C 0,0 km/h
16.04.2013 08:00 13,7 C 82 % 1018,6 hPa 0,0 l/m 0,0 km/h W-SW 10,7 C 13,7 C 0,0 km/h
16.04.2013 09:00 19,6 C 68 % 1019,0 hPa 0,0 l/m 0,0 km/h SW 13,5 C 19,6 C 0,0 km/h
16.04.2013 10:00 23,3 C 55 % 1019,2 hPa 0,0 l/m 0,0 km/h S 13,7 C 23,3 C 0,0 km/h
16.04.2013 11:00 22,9 C 54 % 1019,2 hPa 0,0 l/m 0,0 km/h S-SW 13,1 C 22,9 C 0,0 km/h
16.04.2013 12:00 26,5 C 43 % 1018,9 hPa 0,0 l/m 1,9 km/h O-NO 12,9 C 26,5 C 1,1 km/h
16.04.2013 13:00 24,3 C 46 % 1018,6 hPa 0,0 l/m 0,0 km/h W-NW 11,9 C 24,3 C 0,0 km/h
16.04.2013 14:00 25,3 C 43 % 1018,2 hPa 0,0 l/m 5,8 km/h O 11,8 C 25,3 C 3,2 km/h
16.04.2013 15:00 20,9 C 53 % 1017,9 hPa 0,0 l/m 0,0 km/h O-SO 11,0 C 20,9 C 0,0 km/h
16.04.2013 16:00 21,2 C 55 % 1017,9 hPa 0,0 l/m 0,0 km/h NW 11,8 C 21,2 C 0,0 km/h
16.04.2013 17:00 26,6 C 44 % 1017,9 hPa 0,0 l/m 0,0 km/h NO 13,3 C 26,6 C 0,0 km/h
16.04.2013 18:00 24,4 C 45 % 1018,1 hPa 0,0 l/m 0,0 km/h N-NO 11,7 C 24,4 C 0,0 km/h
16.04.2013 19:00 20,9 C 52 % 1018,6 hPa 0,0 l/m 3,2 km/h O 10,7 C 20,9 C 1,8 km/h
16.04.2013 20:00 18,8 C 55 % 1019,4 hPa 0,0 l/m 0,0 km/h SO 9,6 C 18,8 C 0,0 km/h
16.04.2013 21:00 16,3 C 69 % 1020,0 hPa 0,0 l/m 0,0 km/h O-SO 10,6 C 16,3 C 0,0 km/h
16.04.2013 22:00 15,0 C 72 % 1020,5 hPa 0,0 l/m 0,0 km/h S 10,0 C 15,0 C 0,0 km/h
16.04.2013 23:00 13,8 C 76 % 1020,7 hPa 0,0 l/m 0,0 km/h S-SO 9,6 C 13,8 C 0,0 km/h
17.04.2013 00:00 13,1 C 78 % 1021,1 hPa 0,0 l/m 0,0 km/h S-SO 9,4 C 13,1 C 0,0 km/h
17.04.2013 01:00 11,5 C 81 % 1021,6 hPa 0,0 l/m 0,0 km/h SO 8,4 C 11,5 C 0,0 km/h
17.04.2013 02:00 11,3 C 83 % 1021,5 hPa 0,0 l/m 0,0 km/h S 8,5 C 11,3 C 0,0 km/h
17.04.2013 03:00 10,7 C 83 % 1021,6 hPa 0,0 l/m 0,0 km/h S 7,9 C 10,7 C 0,0 km/h
17.04.2013 04:00 11,4 C 83 % 1021,7 hPa 0,0 l/m 0,0 km/h SO 8,6 C 11,4 C 0,0 km/h
17.04.2013 05:00 10,6 C 83 % 1021,9 hPa 0,0 l/m 0,0 km/h S-SW 7,8 C 10,6 C 0,0 km/h
17.04.2013 06:00 10,9 C 83 % 1021,5 hPa 0,0 l/m 0,0 km/h S-SO 8,1 C 10,9 C 0,0 km/h
17.04.2013 07:00 9,9 C 84 % 1021,9 hPa 0,0 l/m 0,0 km/h S 7,3 C 9,9 C 0,0 km/h
17.04.2013 08:00 13,3 C 81 % 1022,2 hPa 0,0 l/m 3,2 km/h NO 10,1 C 13,3 C 1,8 km/h
17.04.2013 09:00 21,0 C 62 % 1022,2 hPa 0,0 l/m 0,0 km/h O-SO 13,4 C 21,0 C 0,0 km/h
17.04.2013 10:00 23,8 C 50 % 1021,8 hPa 0,0 l/m 1,9 km/h N 12,7 C 23,8 C 1,1 km/h
17.04.2013 11:00 26,1 C 46 % 1021,3 hPa 0,0 l/m 2,6 km/h N 13,6 C 26,1 C 1,4 km/h
17.04.2013 12:00 26,4 C 44 % 1020,4 hPa 0,0 l/m 22,0 km/h N 13,1 C 24,3 C 12,2 km/h
17.04.2013 13:00 26,9 C 41 % 1019,8 hPa 0,0 l/m 4,5 km/h N 12,5 C 26,9 C 2,5 km/h
17.04.2013 14:00 27,5 C 39 % 1018,8 hPa 0,0 l/m 1,9 km/h N 12,3 C 27,5 C 1,1 km/h
17.04.2013 15:00 30,1 C 37 % 1018,2 hPa 0,0 l/m 10,4 km/h N 13,8 C 29,8 C 5,8 km/h
17.04.2013 16:00 33,4 C 31 % 1017,7 hPa 0,0 l/m 0,0 km/h N-NO 13,9 C 33,4 C 0,0 km/h
17.04.2013 17:00 31,6 C 32 % 1017,0 hPa 0,0 l/m 1,3 km/h N 12,9 C 31,6 C 0,7 km/h
17.04.2013 18:00 28,5 C 35 % 1016,6 hPa 0,0 l/m 0,0 km/h N-NO 11,5 C 28,5 C 0,0 km/h
17.04.2013 19:00 24,8 C 43 % 1016,1 hPa 0,0 l/m 0,0 km/h SO 11,4 C 24,8 C 0,0 km/h
17.04.2013 20:00 19,9 C 59 % 1016,2 hPa 0,0 l/m 0,0 km/h S-SW 11,6 C 19,9 C 0,0 km/h
17.04.2013 21:00 17,3 C 67 % 1016,4 hPa 0,0 l/m 11,7 km/h S-SW 11,1 C 15,0 C 6,5 km/h
17.04.2013 22:00 16,1 C 71 % 1016,1 hPa 0,0 l/m 3,2 km/h S 10,8 C 16,1 C 1,8 km/h
17.04.2013 23:00 14,9 C 73 % 1015,9 hPa 0,0 l/m 1,9 km/h S-SO 10,1 C 14,9 C 1,1 km/h
18.04.2013 00:00 14,1 C 75 % 1015,7 hPa 0,0 l/m 0,0 km/h S-SO 9,7 C 14,1 C 0,0 km/h
18.04.2013 01:00 13,1 C 77 % 1015,8 hPa 0,0 l/m 0,0 km/h S 9,2 C 13,1 C 0,0 km/h
18.04.2013 02:00 12,1 C 79 % 1015,8 hPa 0,0 l/m 0,0 km/h S 8,6 C 12,1 C 0,0 km/h
18.04.2013 03:00 11,8 C 81 % 1015,5 hPa 0,0 l/m 2,6 km/h S-SW 8,6 C 11,8 C 1,4 km/h
18.04.2013 04:00 11,5 C 81 % 1015,5 hPa 0,0 l/m 1,9 km/h S 8,4 C 11,5 C 1,1 km/h
18.04.2013 05:00 11,9 C 81 % 1015,4 hPa 0,0 l/m 0,0 km/h O-SO 8,7 C 11,9 C 0,0 km/h
18.04.2013 06:00 11,8 C 81 % 1015,4 hPa 0,0 l/m 0,0 km/h W-SW 8,6 C 11,8 C 0,0 km/h
18.04.2013 07:00 13,9 C 78 % 1015,6 hPa 0,0 l/m 0,0 km/h NW 10,1 C 13,9 C 0,0 km/h
18.04.2013 08:00 19,8 C 56 % 1015,9 hPa 0,0 l/m 19,4 km/h NW 10,8 C 16,1 C 10,8 km/h
18.04.2013 09:00 19,4 C 53 % 1016,4 hPa 0,0 l/m 40,2 km/h N 9,6 C 12,8 C 22,3 km/h
18.04.2013 10:00 20,6 C 54 % 1016,7 hPa 0,0 l/m 26,6 km/h N-NW 11,0 C 16,0 C 14,8 km/h
18.04.2013 11:00 24,6 C 48 % 1016,8 hPa 0,0 l/m 33,0 km/h W-NW 12,8 C 21,0 C 18,4 km/h
18.04.2013 12:00 26,1 C 45 % 1016,8 hPa 0,0 l/m 27,9 km/h W-NW 13,2 C 23,4 C 15,5 km/h
18.04.2013 13:00 22,1 C 50 % 1016,7 hPa 0,0 l/m 25,3 km/h NW 11,2 C 18,2 C 14,0 km/h
18.04.2013 14:00 23,1 C 42 % 1016,6 hPa 0,0 l/m 27,2 km/h W-NW 9,5 C 19,3 C 15,1 km/h
18.04.2013 15:00 25,6 C 38 % 1016,3 hPa 0,0 l/m 35,0 km/h W-SW 10,2 C 22,3 C 19,4 km/h
18.04.2013 16:00 21,5 C 47 % 1016,1 hPa 0,0 l/m 22,0 km/h N 9,7 C 17,8 C 12,2 km/h
18.04.2013 17:00 19,1 C 58 % 1016,7 hPa 0,0 l/m 1,9 km/h SO 10,6 C 19,1 C 1,1 km/h
18.04.2013 18:00 17,6 C 69 % 1017,0 hPa 0,0 l/m 0,0 km/h SO 11,8 C 17,6 C 0,0 km/h
18.04.2013 19:00 16,8 C 73 % 1017,1 hPa 0,0 l/m 0,0 km/h O 11,9 C 16,8 C 0,0 km/h
18.04.2013 20:00 15,8 C 73 % 1017,8 hPa 0,0 l/m 0,0 km/h S-SW 11,0 C 15,8 C 0,0 km/h
18.04.2013 21:00 14,5 C 79 % 1018,3 hPa 0,0 l/m 0,0 km/h NO 10,9 C 14,5 C 0,0 km/h
18.04.2013 22:00 14,2 C 81 % 1018,9 hPa 0,0 l/m 0,0 km/h N-NO 11,0 C 14,2 C 0,0 km/h
18.04.2013 23:00 14,1 C 59 % 1019,4 hPa 0,0 l/m 0,0 km/h N 6,2 C 14,1 C 0,0 km/h
19.04.2013 00:00 13,3 C 60 % 1020,1 hPa 0,0 l/m 0,0 km/h W-SW 5,7 C 13,3 C 0,0 km/h
19.04.2013 01:00 12,1 C 65 % 1020,5 hPa 0,0 l/m 0,0 km/h S-SW 5,7 C 12,1 C 0,0 km/h
19.04.2013 02:00 11,8 C 71 % 1020,4 hPa 0,0 l/m 0,0 km/h SO 6,7 C 11,8 C 0,0 km/h
19.04.2013 03:00 11,3 C 73 % 1020,5 hPa 0,0 l/m 0,0 km/h SO 6,6 C 11,3 C 0,0 km/h
19.04.2013 04:00 10,4 C 79 % 1020,4 hPa 0,0 l/m 0,0 km/h SO 6,9 C 10,4 C 0,0 km/h
19.04.2013 05:00 9,6 C 81 % 1019,8 hPa 0,0 l/m 0,0 km/h S 6,5 C 9,6 C 0,0 km/h
19.04.2013 06:00 9,4 C 82 % 1020,2 hPa 0,0 l/m 0,0 km/h S 6,5 C 9,4 C 0,0 km/h
19.04.2013 07:00 9,5 C 82 % 1020,3 hPa 0,0 l/m 0,6 km/h S-SW 6,6 C 9,5 C 0,4 km/h
19.04.2013 08:00 10,1 C 82 % 1020,8 hPa 0,0 l/m 2,6 km/h O-SO 7,2 C 10,1 C 1,4 km/h
19.04.2013 09:00 11,6 C 80 % 1020,9 hPa 0,0 l/m 0,0 km/h NO 8,3 C 11,6 C 0,0 km/h
19.04.2013 10:00 13,4 C 65 % 1020,6 hPa 0,0 l/m 0,0 km/h O-SO 7,0 C 13,4 C 0,0 km/h
19.04.2013 11:00 14,3 C 57 % 1021,1 hPa 0,0 l/m 6,5 km/h O 5,9 C 14,3 C 3,6 km/h
19.04.2013 12:00 14,3 C 57 % 1020,9 hPa 0,0 l/m 0,0 km/h O-SO 5,9 C 14,3 C 0,0 km/h
19.04.2013 13:00 14,4 C 56 % 1020,6 hPa 0,0 l/m 11,0 km/h O-SO 5,7 C 12,0 C 6,1 km/h
19.04.2013 14:00 14,5 C 56 % 1020,7 hPa 0,0 l/m 0,0 km/h S-SO 5,8 C 14,5 C 0,0 km/h
19.04.2013 15:00 10,8 C 64 % 1021,6 hPa 0,5 l/m 18,1 km/h SW 4,3 C 4,9 C 10,1 km/h
19.04.2013 16:00 12,1 C 59 % 1021,7 hPa 0,0 l/m 15,6 km/h S-SO 4,3 C 7,5 C 8,6 km/h
19.04.2013 17:00 12,8 C 56 % 1021,7 hPa 0,0 l/m 0,0 km/h O-SO 4,2 C 12,8 C 0,0 km/h
19.04.2013 18:00 11,7 C 45 % 1022,0 hPa 0,0 l/m 3,2 km/h SO 0,2 C 11,7 C 1,8 km/h
19.04.2013 19:00 10,9 C 49 % 1021,9 hPa 0,0 l/m 0,0 km/h O-SO 0,6 C 10,9 C 0,0 km/h
19.04.2013 20:00 9,9 C 52 % 1022,1 hPa 0,0 l/m 0,0 km/h O 0,5 C 9,9 C 0,0 km/h
19.04.2013 21:00 8,4 C 57 % 1022,4 hPa 0,0 l/m 0,0 km/h S 0,4 C 8,4 C 0,0 km/h
19.04.2013 22:00 7,5 C 67 % 1022,4 hPa 0,0 l/m 0,0 km/h S 1,8 C 7,5 C 0,0 km/h
19.04.2013 23:00 7,2 C 70 % 1022,4 hPa 0,0 l/m 0,0 km/h SW 2,1 C 7,2 C 0,0 km/h
20.04.2013 00:00 7,1 C 75 % 1022,2 hPa 0,0 l/m 1,9 km/h S-SW 3,0 C 7,1 C 1,1 km/h
20.04.2013 01:00 7,1 C 76 % 1021,8 hPa 0,0 l/m 0,0 km/h SO 3,2 C 7,1 C 0,0 km/h
20.04.2013 02:00 6,8 C 78 % 1021,7 hPa 0,0 l/m 0,0 km/h S 3,2 C 6,8 C 0,0 km/h
20.04.2013 03:00 6,9 C 78 % 1021,4 hPa 0,0 l/m 5,8 km/h O-SO 3,3 C 6,9 C 3,2 km/h
20.04.2013 04:00 7,3 C 73 % 1021,2 hPa 0,0 l/m 0,0 km/h O-SO 2,8 C 7,3 C 0,0 km/h
20.04.2013 05:00 6,7 C 74 % 1020,9 hPa 0,0 l/m 0,0 km/h S 2,4 C 6,7 C 0,0 km/h
20.04.2013 06:00 6,4 C 77 % 1020,2 hPa 0,0 l/m 0,0 km/h O-SO 2,7 C 6,4 C 0,0 km/h
20.04.2013 07:00 6,3 C 77 % 1020,3 hPa 0,0 l/m 0,0 km/h O-SO 2,6 C 6,3 C 0,0 km/h
20.04.2013 08:00 6,3 C 80 % 1020,1 hPa 0,0 l/m 0,0 km/h O-SO 3,1 C 6,3 C 0,0 km/h
20.04.2013 09:00 6,7 C 81 % 1019,9 hPa 0,0 l/m 0,0 km/h O-SO 3,7 C 6,7 C 0,0 km/h
20.04.2013 10:00 7,5 C 81 % 1019,7 hPa 0,5 l/m 5,8 km/h SO 4,5 C 7,5 C 3,2 km/h
20.04.2013 11:00 9,4 C 78 % 1019,0 hPa 0,5 l/m 0,0 km/h SO 5,8 C 9,4 C 0,0 km/h
20.04.2013 12:00 9,2 C 77 % 1018,9 hPa 0,0 l/m 0,0 km/h O 5,4 C 9,2 C 0,0 km/h
20.04.2013 13:00 9,4 C 74 % 1018,7 hPa 0,0 l/m 7,1 km/h O-NO 5,0 C 8,9 C 4,0 km/h
20.04.2013 14:00 9,1 C 74 % 1018,8 hPa 0,0 l/m 0,0 km/h O-NO 4,7 C 9,1 C 0,0 km/h
20.04.2013 15:00 9,1 C 76 % 1018,5 hPa 0,0 l/m 0,0 km/h O-SO 5,1 C 9,1 C 0,0 km/h
20.04.2013 16:00 8,9 C 78 % 1018,3 hPa 0,0 l/m 0,0 km/h O-SO 5,3 C 8,9 C 0,0 km/h
20.04.2013 17:00 9,0 C 79 % 1018,2 hPa 0,0 l/m 0,0 km/h O-NO 5,6 C 9,0 C 0,0 km/h
20.04.2013 18:00 8,5 C 81 % 1018,3 hPa 0,0 l/m 1,3 km/h SO 5,4 C 8,5 C 0,7 km/h
20.04.2013 19:00 7,9 C 83 % 1018,1 hPa 0,0 l/m 1,9 km/h NO 5,2 C 7,9 C 1,1 km/h
20.04.2013 20:00 7,4 C 84 % 1018,2 hPa 0,0 l/m 0,0 km/h O 4,9 C 7,4 C 0,0 km/h
20.04.2013 21:00 7,3 C 83 % 1018,3 hPa 0,0 l/m 0,0 km/h O-SO 4,6 C 7,3 C 0,0 km/h
20.04.2013 22:00 7,3 C 83 % 1018,5 hPa 0,0 l/m 20,1 km/h O-SO 4,6 C -0,2 C 11,2 km/h
20.04.2013 23:00 7,6 C 84 % 1018,1 hPa 0,0 l/m 0,0 km/h O-SO 5,1 C 7,6 C 0,0 km/h
21.04.2013 00:00 7,9 C 84 % 1017,9 hPa 0,0 l/m 3,9 km/h O-NO 5,4 C 7,9 C 2,2 km/h
21.04.2013 01:00 7,9 C 84 % 1017,7 hPa 0,0 l/m 0,0 km/h SO 5,4 C 7,9 C 0,0 km/h
21.04.2013 02:00 7,9 C 84 % 1016,9 hPa 0,0 l/m 0,0 km/h O-SO 5,4 C 7,9 C 0,0 km/h
21.04.2013 03:00 7,9 C 83 % 1016,7 hPa 0,0 l/m 3,2 km/h S-SW 5,2 C 7,9 C 1,8 km/h
21.04.2013 04:00 7,5 C 84 % 1016,4 hPa 0,0 l/m 0,0 km/h S 5,0 C 7,5 C 0,0 km/h
21.04.2013 05:00 7,4 C 84 % 1016,1 hPa 0,0 l/m 0,0 km/h S 4,9 C 7,4 C 0,0 km/h
21.04.2013 06:00 7,3 C 84 % 1016,4 hPa 0,0 l/m 0,0 km/h S 4,8 C 7,3 C 0,0 km/h
21.04.2013 07:00 7,5 C 84 % 1016,3 hPa 0,0 l/m 0,0 km/h S 5,0 C 7,5 C 0,0 km/h
21.04.2013 08:00 8,6 C 84 % 1016,3 hPa 0,0 l/m 0,0 km/h N 6,1 C 8,6 C 0,0 km/h
21.04.2013 09:00 8,8 C 84 % 1016,4 hPa 0,0 l/m 0,0 km/h N-NO 6,2 C 8,8 C 0,0 km/h
21.04.2013 10:00 10,1 C 82 % 1016,4 hPa 0,0 l/m 0,0 km/h N-NO 7,2 C 10,1 C 0,0 km/h
21.04.2013 11:00 11,8 C 74 % 1016,6 hPa 0,0 l/m 1,9 km/h N-NO 7,3 C 11,8 C 1,1 km/h
21.04.2013 12:00 13,2 C 69 % 1016,4 hPa 0,0 l/m 0,0 km/h N 7,6 C 13,2 C 0,0 km/h
21.04.2013 13:00 14,1 C 66 % 1016,2 hPa 0,0 l/m 3,9 km/h N-NO 7,8 C 14,1 C 2,2 km/h
21.04.2013 14:00 15,6 C 61 % 1015,9 hPa 0,0 l/m 0,6 km/h W 8,1 C 15,6 C 0,4 km/h
21.04.2013 15:00 15,8 C 61 % 1015,4 hPa 0,0 l/m 1,9 km/h W-SW 8,3 C 15,8 C 1,1 km/h
21.04.2013 16:00 15,2 C 60 % 1015,0 hPa 0,0 l/m 0,0 km/h N 7,5 C 15,2 C 0,0 km/h
21.04.2013 17:00 13,6 C 64 % 1014,8 hPa 0,0 l/m 10,4 km/h N 6,9 C 11,4 C 5,8 km/h
21.04.2013 18:00 12,5 C 68 % 1014,7 hPa 0,0 l/m 5,2 km/h N 6,8 C 12,5 C 2,9 km/h
21.04.2013 19:00 11,5 C 72 % 1014,7 hPa 0,0 l/m 2,6 km/h N 6,6 C 11,5 C 1,4 km/h
21.04.2013 20:00 10,8 C 75 % 1015,2 hPa 0,0 l/m 3,9 km/h N-NO 6,5 C 10,8 C 2,2 km/h
21.04.2013 21:00 10,3 C 77 % 1015,6 hPa 0,0 l/m 0,0 km/h S-SW 6,4 C 10,3 C 0,0 km/h
21.04.2013 22:00 9,6 C 81 % 1015,8 hPa 0,0 l/m 2,6 km/h S-SW 6,5 C 9,6 C 1,4 km/h
21.04.2013 23:00 9,3 C 83 % 1015,6 hPa 0,0 l/m 3,9 km/h S 6,6 C 9,3 C 2,2 km/h
Min-Datum _ 20.04.13 15.04.13 21.04.13 - 15.04.13 - 19.04.13 20.04.13 15.04.13
_ Min-Zeit 07:19 16:19 18:19 - 00:19 - 18:19 22:19 00:19
Minimum _ 6,3 C 29 % 1014,7 hPa - 0,0 km/h - 0,2 C -0,2 C 0,0 km/h
Max-Datum _ 17.04.13 17.04.13 19.04.13 19.04.13 18.04.13 - 17.04.13 17.04.13 18.04.13
_ Max-Zeit 16:19 07:19 21:19 15:19 09:19 - 16:19 16:19 09:19
Maximum _ 33,4 C 84 % 1022,4 hPa 0,5 l/m 40,2 km/h
N
- 13,9 C 33,4 C 22,3 km/h
N
Durchschnitt _ 14,7 C 66 % 1018,5 hPa #1,6 l/m 3,8 km/h S 7,9 C 14,2 C 2,1 km/h
www.sexauwetter.de